ADDS METAR Data INFO
IDs: Format: Raw Decoded Include TAF

Data at: 0735 UTC 18 Oct 2017

KMCX 180735Z AUTO 18004KT 10SM CLR 10/04 A3021 RMK AO2 T00980041
KMCX 180715Z AUTO 18005KT 10SM CLR 10/04 A3021 RMK AO2 T01000041
KMCX 180655Z AUTO 19004KT 10SM CLR 10/04 A3021 RMK AO2 T00990040
KMCX 180635Z AUTO 19004KT 10SM CLR 10/04 A3021 RMK AO2 T00980040
KMCX 180615Z AUTO 18004KT 10SM CLR 10/04 A3021 RMK AO2 T00950040
KMCX 180555Z AUTO 18003KT 10SM CLR 09/04 A3022 RMK AO2 T00850039 10145 20085
KMCX 180535Z AUTO 18003KT 10SM CLR 10/04 A3022 RMK AO2 T00970040
KMCX 180515Z AUTO 19004KT 10SM CLR 10/04 A3022 RMK AO2 T00990040
KMCX 180455Z AUTO 19003KT 10SM CLR 10/04 A3022 RMK AO2 T01000040 402030060
KMCX 180435Z AUTO 19004KT 10SM CLR 10/04 A3022 RMK AO2 T00980040
KMCX 180415Z AUTO 20005KT 10SM CLR 10/04 A3021 RMK AO2 T01020042
KMCX 180355Z AUTO 19006KT 10SM CLR 11/04 A3022 RMK AO2 T01100042
KMCX 180335Z AUTO 19006KT 10SM CLR 11/04 A3022 RMK AO2 T01090043
KMCX 180315Z AUTO 19006KT 10SM CLR 12/04 A3022 RMK AO2 T01150041
KMCX 180255Z AUTO 19005KT 10SM CLR 10/04 A3022 RMK AO2 T01030041
KMCX 180235Z AUTO 19005KT 10SM CLR 12/04 A3022 RMK AO2 T01160040
KMCX 180215Z AUTO 19005KT 10SM CLR 11/04 A3021 RMK AO2 T01100042
KMCX 180155Z AUTO 20004KT 10SM CLR 11/05 A3021 RMK AO2 T01110045
KMCX 180135Z AUTO 20006KT 10SM CLR 12/05 A3021 RMK AO2 T01160045
KMCX 180115Z AUTO 20006KT 10SM CLR 12/04 A3021 RMK AO2 T01200042
KMCX 180055Z AUTO 19005KT 10SM CLR 14/04 A3021 RMK AO2 T01350040
KMCX 180035Z AUTO 18004KT 10SM CLR 13/04 A3021 RMK AO2 T01300039
KMCX 180015Z AUTO 18005KT 10SM CLR 13/04 A3020 RMK AO2 T01340038
KMCX 172355Z AUTO 19004KT 10SM CLR 15/04 A3020 RMK AO2 T01460036 10203 20146
KMCX 172335Z AUTO 19005KT 10SM CLR 15/04 A3020 RMK AO2 T01520035
KMCX 172315Z AUTO 19005KT 10SM CLR 16/03 A3019 RMK AO2 T01580032
KMCX 172255Z AUTO 20006KT 10SM CLR 16/04 A3019 RMK AO2 T01600035
KMCX 172235Z AUTO 19005KT 10SM CLR 17/03 A3019 RMK AO2 T01740033
KMCX 172215Z AUTO 21010KT 10SM CLR 18/03 A3019 RMK AO2 T01830026
KMCX 172155Z AUTO 22009KT 10SM CLR 19/03 A3019 RMK AO2 T01890027
KMCX 172135Z AUTO 21009KT 10SM CLR 19/03 A3019 RMK AO2 T01920025
KMCX 172115Z AUTO 23010G17KT 10SM CLR 20/03 A3020 RMK AO2 T01950028
KMCX 172055Z AUTO 23010G14KT 10SM CLR 20/03 A3020 RMK AO2 T01970025
KMCX 172035Z AUTO 21011KT 10SM CLR 20/02 A3020 RMK AO2 T01970021
KMCX 172015Z AUTO 24013KT 10SM CLR 20/03 A3021 RMK AO2 T02010028
KMCX 171955Z AUTO 24010G15KT 10SM CLR 20/03 A3021 RMK AO2 T01990029
KMCX 171935Z AUTO 22014KT 10SM CLR 20/03 A3022 RMK AO2 T01970029
KMCX 171915Z AUTO 23013G20KT 10SM CLR 20/03 A3022 RMK AO2 T01970030
KMCX 171855Z AUTO 23012G19KT 7SM CLR 19/04 A3023 RMK AO2 T01940035
KMCX 171835Z AUTO 23016KT 10SM CLR 19/03 A3023 RMK AO2 T01920032
KMCX 171815Z AUTO 24013G16KT 10SM CLR 19/04 A3024 RMK AO2 T01900036
KMCX 171755Z AUTO 21012G21KT 7SM CLR 19/03 A3025 RMK AO2 T01860033 10186 20061
KMCX 171735Z AUTO 21016G21KT 7SM CLR 18/03 A3025 RMK AO2 T01810034
KMCX 171715Z AUTO 22011G20KT 7SM CLR 18/03 A3027 RMK AO2 T01780030
KMCX 171655Z AUTO 22016G21KT 10SM CLR 18/03 A3027 RMK AO2 T01750031
KMCX 171635Z AUTO 23015G21KT 10SM CLR 17/03 A3028 RMK AO2 T01680027
KMCX 171615Z AUTO 22016G21KT 10SM CLR 16/03 A3028 RMK AO2 T01640029
KMCX 171555Z AUTO 23015G21KT 10SM CLR 16/03 A3028 RMK AO2 T01560029
KMCX 171535Z AUTO 22018G21KT 10SM CLR 15/03 A3029 RMK AO2 T01500027
KMCX 171515Z AUTO 23013G19KT 10SM CLR 15/03 A3029 RMK AO2 T01460031
KMCX 171455Z AUTO 23014G19KT 10SM CLR 14/03 A3030 RMK AO2 T01370028
KMCX 171435Z AUTO 22010G20KT 10SM CLR 13/04 A3030 RMK AO2 T01310035
KMCX 171415Z AUTO 22011KT 10SM CLR 12/04 A3030 RMK AO2 T01180036
KMCX 171355Z AUTO 21012G16KT 10SM CLR 11/04 A3030 RMK AO2 T01100036
KMCX 171335Z AUTO 21010KT 10SM CLR 10/04 A3030 RMK AO2 T00970037
KMCX 171315Z AUTO 21008KT 10SM CLR 09/04 A3030 RMK AO2 T00870035
KMCX 171255Z AUTO 21007KT 10SM CLR 08/03 A3030 RMK AO2 T00760033
KMCX 171235Z AUTO 21007KT 10SM CLR 07/03 A3029 RMK AO2 T00680030
KMCX 171215Z AUTO 21006KT 10SM CLR 07/03 A3029 RMK AO2 T00650028
KMCX 171155Z AUTO 20006KT 10SM CLR 06/03 A3029 RMK AO2 T00620029 10072 20060
KMCX 171135Z AUTO 20006KT 10SM CLR 06/03 A3029 RMK AO2 T00620030
KMCX 171115Z AUTO 20005KT 10SM CLR 06/03 A3030 RMK AO2 T00610030
KMCX 171055Z AUTO 21005KT 10SM CLR 06/03 A3030 RMK AO2 T00640029
KMCX 171035Z AUTO 21006KT 10SM CLR 07/03 A3029 RMK AO2 T00650030
KMCX 171015Z AUTO 20006KT 10SM CLR 07/03 A3029 RMK AO2 T00650031
KMCX 170955Z AUTO 20006KT 10SM CLR 06/03 A3029 RMK AO2 T00640031
KMCX 170935Z AUTO 20005KT 10SM CLR 06/03 A3028 RMK AO2 T00630032
KMCX 170915Z AUTO 20006KT 10SM CLR 07/03 A3027 RMK AO2 T00650032
KMCX 170855Z AUTO 20005KT 10SM CLR 06/03 A3027 RMK AO2 T00630032
KMCX 170835Z AUTO 20005KT 10SM CLR 07/03 A3026 RMK AO2 T00650030
KMCX 170815Z AUTO 20005KT 10SM CLR 06/03 A3027 RMK AO2 T00640030
KMCX 170755Z AUTO 20005KT 10SM CLR 06/03 A3027 RMK AO2 T00630030
KMCX 170735Z AUTO 20005KT 10SM CLR 07/03 A3027 RMK AO2 T00670030
KMCX 170715Z AUTO 19005KT 10SM CLR 07/03 A3027 RMK AO2 T00680030
KMCX 170655Z AUTO 20004KT 10SM CLR 07/03 A3026 RMK AO2 T00700030
KMCX 170635Z AUTO 20005KT 10SM CLR 07/03 A3026 RMK AO2 T00680030
KMCX 170615Z AUTO 20005KT 10SM CLR 07/03 A3026 RMK AO2 T00710030
KMCX 170555Z AUTO 20005KT 10SM CLR 07/03 A3026 RMK AO2 T00710031 10125 20068
KMCX 170535Z AUTO 20005KT 10SM CLR 07/03 A3026 RMK AO2 T00680029
KMCX 170515Z AUTO 20004KT 10SM CLR 07/03 A3026 RMK AO2 T00710030
KMCX 170455Z AUTO 20004KT 10SM CLR 08/03 A3026 RMK AO2 T00750030 401720035
KMCX 170435Z AUTO 20004KT 10SM CLR 08/03 A3026 RMK AO2 T00780031
KMCX 170415Z AUTO 21004KT 10SM CLR 08/03 A3027 RMK AO2 T00760031
KMCX 170355Z AUTO 21004KT 10SM CLR 08/03 A3027 RMK AO2 T00770032
KMCX 170335Z AUTO 21004KT 10SM CLR 08/03 A3027 RMK AO2 T00820031
KMCX 170315Z AUTO 19004KT 10SM CLR 09/03 A3027 RMK AO2 T00870034
KMCX 170255Z AUTO 20004KT 10SM CLR 09/03 A3027 RMK AO2 T00860034
KMCX 170235Z AUTO 19004KT 10SM CLR 09/03 A3026 RMK AO2 T00920032
KMCX 170215Z AUTO 19004KT 10SM CLR 10/03 A3026 RMK AO2 T00950030
KMCX 170155Z AUTO 20004KT 10SM CLR 10/03 A3026 RMK AO2 T00960030
KMCX 170135Z AUTO 19003KT 10SM CLR 10/03 A3026 RMK AO2 T01040025
KMCX 170115Z AUTO 19004KT 10SM CLR 11/03 A3025 RMK AO2 T01100025
KMCX 170055Z AUTO 18004KT 10SM CLR 11/03 A3026 RMK AO2 T01050026
KMCX 170035Z AUTO 19003KT 10SM CLR 11/03 A3026 RMK AO2 T01070027
KMCX 170015Z AUTO 00000KT 10SM CLR 12/02 A3025 RMK AO2 T01180020
KMCX 162355Z AUTO 19003KT 10SM CLR 12/03 A3025 RMK AO2 T01150027 10172 20115
KMCX 162335Z AUTO 00000KT 10SM CLR 13/02 A3025 RMK AO2 T01290016
KMCX 162315Z AUTO 22003KT 10SM CLR 13/02 A3025 RMK AO2 T01280021
KMCX 162255Z AUTO 23003KT 10SM CLR 14/01 A3025 RMK AO2 T01430012
KMCX 162235Z AUTO 25004KT 10SM CLR 15/01 A3025 RMK AO2 T01520007
KMCX 162215Z AUTO 26006KT 10SM CLR 16/01 A3026 RMK AO2 T01600006
KMCX 162155Z AUTO 25004KT 10SM SCT065 16/00 A3026 RMK AO2 T01600004
KMCX 162135Z AUTO 24006KT 10SM SCT065 16/00 A3026 RMK AO2 T01630001
KMCX 162115Z AUTO 29006KT 10SM CLR 16/00 A3027 RMK AO2 T01600002
KMCX 162055Z AUTO 28007KT 10SM SCT060 16/00 A3027 RMK AO2 T01600003
KMCX 162035Z AUTO 27009KT 10SM SCT060 17/01 A3027 RMK AO2 T01710005
KMCX 162015Z AUTO 26009G14KT 10SM SCT060 17/01 A3027 RMK AO2 T01670007
KMCX 161955Z AUTO 29004KT 10SM SCT060 16/01 A3028 RMK AO2 T01630007